Berkeley, CA (94701)

5:41 AM PDT on August 04, 2015 (GMT -0700)
ForestAve | | Change Station
CLOSE
Current Station
Personal Weather Station
Location: Berkeley, CA
Elevation: 318 ft
Nearby Weather Stations

Elev 318 ft 37.86 °N, 122.25 °W | Updated 16 seconds ago

Mostly Cloudy
Mostly Cloudy
58.5 °F
Feels Like 58.5 °F
N
0.0
Wind Variable Wind from NNW
Gusts 0.0 mph

Today
High -- | Low -- °F
--% Chance of Precip.
Yesterday
High -- | Low -- °F
Precip. -- in
6:14 AM 8:14 PM
Waning Gibbous, 78% visible
Pressure 29.97 in
Visibility 10.0 miles
Clouds Few 1300 ft
Mostly Cloudy 18000 ft
Dew Point 57 °F
Humidity 96%
Rainfall 0.00 in
Snow Depth Not available.
UV 0.0 out of 12
Pollen 4.90 out of 12
Air Quality Not available.
Flu Activity Not available.
METAR KOAK 041153Z 28007KT 10SM FEW013 BKN180 17/12 A2997 RMK AO2 SLP147 T01720122 10200 20167 56001

More Conditions Fewer Conditions

Pressure 29.97 in
Visibility 10.0 miles
Clouds Few 1300 ft
Mostly Cloudy 18000 ft
Dew Point 57 °F
Humidity 96%
Rainfall 0.00 in
Snow Depth Not available.
UV 0.0 out of 12
Pollen 4.90 out of 12
Air Quality Not available.
Flu Activity Not available.
METAR KOAK 041153Z 28007KT 10SM FEW013 BKN180 17/12 A2997 RMK AO2 SLP147 T01720122 10200 20167 56001

More Conditions Fewer Conditions

10-Day Weather Forecast

×

Almanac

Astronomy

Aug. 04, 2015 Rise Set
Actual Time
Civil Twilight
Nautical Twilight
Astronomical Twilight
Moon
Length of Visible Light
Length of Day
Tomorrow will be .
, % of the Moon is Illuminated

Today's Extremes

State Highs State Lows

Community

WunderPhotos

Upload Photos

1,843,913 photos uploaded!

WunderBlogs® & News

Nearby

Air Quality

  Air Quality AQ Index Pollutant
Not available.

Snow Depth

Station Depth Elevation

Earthquake Activity

City Distance Mag. Time & Date
Minimum magnitude displayed is 2.5.

Coastal Water Temperatures

Place Temperature

Stations

Nearby Weather Stations

Station Location Temp. Windchill Dew Point Humidity Wind Precip. Elev Updated Type